Cottonton, AL (36851)

5:47 AM CDT on September 02, 2014 (GMT -0500)
Coolbranch North of Lakepoint | Change Station
CLOSE
Current Station
Personal Weather Station
Location: Eufaula, AL
Elevation: 236 ft
Nearby Weather Stations

Elev 236 ft 32.01 °N, 85.09 °W | Updated 12 minutes ago

Clear
Clear
72.9 °F
Feels Like 72.9 °F
N
0.0
Wind Variable Wind from South
Gusts 0.0 mph

Today
High -- | Low -- °F
--% Chance of Precip.
Yesterday
High -- | Low -- °F
Precip. -- in
6:16 AM 7:03 PM
Waxing Crescent, 50% visible
Pressure 30.05 in
Visibility 6.0 miles
Clouds Clear
Dew Point 72 °F
Humidity 96%
Rainfall 0.00 in
Snow Depth Not available.
UV 0 out of 12
Pollen 9.10 out of 12
Air Quality Not available.
Flu Activity Not available.
METAR KEUF 020958Z AUTO 00000KT 6SM BR CLR 23/22 A3006 RMK AO2 SLP175 T02280217 $

More Conditions Fewer Conditions

Pressure 30.05 in
Visibility 6.0 miles
Clouds Clear
Dew Point 72 °F
Humidity 96%
Rainfall 0.00 in
Snow Depth Not available.
UV 0 out of 12
Pollen 9.10 out of 12
Air Quality Not available.
Flu Activity Not available.
METAR KEUF 020958Z AUTO 00000KT 6SM BR CLR 23/22 A3006 RMK AO2 SLP175 T02280217 $

More Conditions Fewer Conditions

10-Day Weather Forecast

Almanac

Astronomy

Sep. 02, 2014 Rise Set
Actual Time 6:16 AM CDT 7:03 PM CDT
Civil Twilight 5:51 AM CDT 7:28 PM CDT
Nautical Twilight 5:21 AM CDT 7:57 PM CDT
Astronomical Twilight 4:51 AM CDT 8:27 PM CDT
Moon 1:35 PM CDT No Moon Set
Length of Visible Light 13h 36m
Length of Day
12h 47m
Tomorrow will be 1m 53s shorter.
Waxing Crescent, 50% of the Moon is Illuminated
Today
Waxing Crescent
Sep 2
First Quarter
Sep 8
Full
Sep 15
Last Quarter
Sep 24
New

Today's Extremes

State Highs State Lows

Community

WunderPhotos

Upload Photos

1,749,611 photos uploaded!

WunderBlogs® & News

Nearby

Air Quality

  Air Quality AQ Index Pollutant
Tuesday Good
PM2.5

Snow Depth

Station Depth Elevation
No new snow has been reported.

Earthquake Activity

City Distance Mag. Time & Date
No recent earthquake activity has been reported nearby.
Minimum magnitude displayed is 2.5.

Coastal Water Temperatures

Place Temperature
No Stations Reporting

Nearby Weather Stations